sensor_id;sensor_type;location;lat;lon;timestamp;pressure;altitude;pressure_sealevel;temperature;humidity
67430;BME280;54298;52.076;5.264;2022-07-03T00:00:26;101747.0;;;17.34;72.33
67430;BME280;54298;52.076;5.264;2022-07-03T00:04:01;101748.0;;;17.37;71.52
67430;BME280;54298;52.076;5.264;2022-07-03T00:05:48;101749.0;;;17.36;71.28
67430;BME280;54298;52.076;5.264;2022-07-03T00:07:36;101746.0;;;17.45;71.16
67430;BME280;54298;52.076;5.264;2022-07-03T00:09:24;101739.0;;;17.5;71.0
67430;BME280;54298;52.076;5.264;2022-07-03T00:11:11;101740.0;;;17.54;70.94
67430;BME280;54298;52.076;5.264;2022-07-03T00:12:58;101739.0;;;17.5;71.08
67430;BME280;54298;52.076;5.264;2022-07-03T00:16:32;101736.0;;;17.43;71.44
67430;BME280;54298;52.076;5.264;2022-07-03T00:18:20;101745.0;;;17.2;72.09
67430;BME280;54298;52.076;5.264;2022-07-03T00:20:08;101747.0;;;17.0;72.56
67430;BME280;54298;52.076;5.264;2022-07-03T00:21:56;101746.0;;;16.87;72.69
67430;BME280;54298;52.076;5.264;2022-07-03T00:23:52;101743.0;;;16.91;72.74
67430;BME280;54298;52.076;5.264;2022-07-03T00:25:42;101741.0;;;16.98;72.66
67430;BME280;54298;52.076;5.264;2022-07-03T00:29:21;101742.0;;;17.0;72.75
67430;BME280;54298;52.076;5.264;2022-07-03T00:31:11;101739.0;;;16.86;73.38
67430;BME280;54298;52.076;5.264;2022-07-03T00:32:59;101746.0;;;16.77;73.8
67430;BME280;54298;52.076;5.264;2022-07-03T00:34:49;101749.0;;;16.73;73.89
67430;BME280;54298;52.076;5.264;2022-07-03T00:36:38;101742.0;;;16.75;73.67
67430;BME280;54298;52.076;5.264;2022-07-03T00:38:24;101749.0;;;16.79;73.45
67430;BME280;54298;52.076;5.264;2022-07-03T00:40:13;101745.0;;;16.63;73.91
67430;BME280;54298;52.076;5.264;2022-07-03T00:43:49;101743.0;;;16.79;73.2
67430;BME280;54298;52.076;5.264;2022-07-03T00:45:38;101736.0;;;16.84;72.84
67430;BME280;54298;52.076;5.264;2022-07-03T00:47:35;101748.0;;;16.62;73.61
67430;BME280;54298;52.076;5.264;2022-07-03T00:49:23;101750.0;;;16.55;73.91
67430;BME280;54298;52.076;5.264;2022-07-03T00:51:14;101743.0;;;16.54;74.17
67430;BME280;54298;52.076;5.264;2022-07-03T00:53:06;101742.0;;;16.52;74.11
67430;BME280;54298;52.076;5.264;2022-07-03T00:54:59;101740.0;;;16.52;73.91
67430;BME280;54298;52.076;5.264;2022-07-03T00:58:38;101738.0;;;16.27;74.97
67430;BME280;54298;52.076;5.264;2022-07-03T01:00:27;101739.0;;;16.32;74.61
67430;BME280;54298;52.076;5.264;2022-07-03T01:02:23;101739.0;;;16.11;75.5
67430;BME280;54298;52.076;5.264;2022-07-03T01:04:36;101738.0;;;15.98;76.2
67430;BME280;54298;52.076;5.264;2022-07-03T01:06:32;101738.0;;;16.02;76.03
67430;BME280;54298;52.076;5.264;2022-07-03T01:08:28;101733.0;;;16.05;75.69
67430;BME280;54298;52.076;5.264;2022-07-03T01:10:32;101732.0;;;16.12;75.28
67430;BME280;54298;52.076;5.264;2022-07-03T01:12:33;101733.0;;;16.09;75.47
67430;BME280;54298;52.076;5.264;2022-07-03T01:14:43;101740.0;;;15.96;76.08
67430;BME280;54298;52.076;5.264;2022-07-03T01:16:37;101739.0;;;15.85;76.31
67430;BME280;54298;52.076;5.264;2022-07-03T01:18:35;101737.0;;;15.85;76.36
67430;BME280;54298;52.076;5.264;2022-07-03T01:20:27;101734.0;;;15.87;76.28
67430;BME280;54298;52.076;5.264;2022-07-03T01:22:29;101739.0;;;15.93;75.75
67430;BME280;54298;52.076;5.264;2022-07-03T01:24:37;101738.0;;;15.96;75.44
67430;BME280;54298;52.076;5.264;2022-07-03T01:26:50;101735.0;;;15.99;75.06
67430;BME280;54298;52.076;5.264;2022-07-03T01:28:44;101728.0;;;15.92;75.17
67430;BME280;54298;52.076;5.264;2022-07-03T01:30:34;101731.0;;;15.88;75.23
67430;BME280;54298;52.076;5.264;2022-07-03T01:34:19;101730.0;;;15.79;75.47
67430;BME280;54298;52.076;5.264;2022-07-03T01:36:08;101725.0;;;15.73;75.56
67430;BME280;54298;52.076;5.264;2022-07-03T01:37:56;101724.0;;;15.62;75.91
67430;BME280;54298;52.076;5.264;2022-07-03T01:39:52;101719.0;;;15.64;75.72
67430;BME280;54298;52.076;5.264;2022-07-03T01:41:39;101721.0;;;15.62;75.87
67430;BME280;54298;52.076;5.264;2022-07-03T01:43:29;101720.0;;;15.58;75.83
67430;BME280;54298;52.076;5.264;2022-07-03T01:45:18;101716.0;;;15.54;75.62
67430;BME280;54298;52.076;5.264;2022-07-03T01:47:06;101716.0;;;15.6;75.3
67430;BME280;54298;52.076;5.264;2022-07-03T01:50:45;101712.0;;;15.52;75.45
67430;BME280;54298;52.076;5.264;2022-07-03T01:52:33;101713.0;;;15.54;75.28
67430;BME280;54298;52.076;5.264;2022-07-03T01:54:24;101703.0;;;15.45;75.22
67430;BME280;54298;52.076;5.264;2022-07-03T01:56:12;101707.0;;;15.47;75.08
67430;BME280;54298;52.076;5.264;2022-07-03T01:58:00;101711.0;;;15.4;75.42
67430;BME280;54298;52.076;5.264;2022-07-03T01:59:48;101714.0;;;15.42;75.36
67430;BME280;54298;52.076;5.264;2022-07-03T02:03:33;101712.0;;;15.44;75.34
67430;BME280;54298;52.076;5.264;2022-07-03T02:05:29;101708.0;;;15.45;74.87
67430;BME280;54298;52.076;5.264;2022-07-03T02:07:23;101705.0;;;15.39;75.05
67430;BME280;54298;52.076;5.264;2022-07-03T02:09:17;101706.0;;;15.36;74.86
67430;BME280;54298;52.076;5.264;2022-07-03T02:11:14;101705.0;;;15.24;75.24
67430;BME280;54298;52.076;5.264;2022-07-03T02:13:07;101705.0;;;15.09;75.62
67430;BME280;54298;52.076;5.264;2022-07-03T02:15:04;101702.0;;;15.04;75.75
67430;BME280;54298;52.076;5.264;2022-07-03T02:17:01;101696.0;;;15.13;75.52
67430;BME280;54298;52.076;5.264;2022-07-03T02:18:56;101699.0;;;15.0;75.94
67430;BME280;54298;52.076;5.264;2022-07-03T02:21:00;101700.0;;;14.92;76.27
67430;BME280;54298;52.076;5.264;2022-07-03T02:22:55;101699.0;;;14.87;76.55
67430;BME280;54298;52.076;5.264;2022-07-03T02:24:46;101701.0;;;14.94;76.33
67430;BME280;54298;52.076;5.264;2022-07-03T02:28:33;101700.0;;;14.94;76.5
67430;BME280;54298;52.076;5.264;2022-07-03T02:30:42;101697.0;;;14.95;76.47
67430;BME280;54298;52.076;5.264;2022-07-03T02:32:32;101699.0;;;15.0;76.17
67430;BME280;54298;52.076;5.264;2022-07-03T02:34:22;101699.0;;;15.03;76.06
67430;BME280;54298;52.076;5.264;2022-07-03T02:36:13;101699.0;;;15.02;76.09
67430;BME280;54298;52.076;5.264;2022-07-03T02:38:04;101707.0;;;14.76;76.84
67430;BME280;54298;52.076;5.264;2022-07-03T02:40:01;101708.0;;;14.78;77.05
67430;BME280;54298;52.076;5.264;2022-07-03T02:41:56;101705.0;;;14.76;77.22
67430;BME280;54298;52.076;5.264;2022-07-03T02:43:50;101702.0;;;14.83;76.98
67430;BME280;54298;52.076;5.264;2022-07-03T02:45:48;101705.0;;;14.79;77.06
67430;BME280;54298;52.076;5.264;2022-07-03T02:49:43;101703.0;;;14.8;77.0
67430;BME280;54298;52.076;5.264;2022-07-03T02:51:37;101705.0;;;14.93;76.5
67430;BME280;54298;52.076;5.264;2022-07-03T02:53:35;101707.0;;;14.83;76.98
67430;BME280;54298;52.076;5.264;2022-07-03T02:55:42;101710.0;;;14.9;76.59
67430;BME280;54298;52.076;5.264;2022-07-03T02:57:37;101711.0;;;14.89;76.55
67430;BME280;54298;52.076;5.264;2022-07-03T02:59:37;101711.0;;;14.77;77.22
67430;BME280;54298;52.076;5.264;2022-07-03T03:01:38;101712.0;;;14.9;76.8
67430;BME280;54298;52.076;5.264;2022-07-03T03:03:34;101709.0;;;14.91;76.94
67430;BME280;54298;52.076;5.264;2022-07-03T03:05:27;101703.0;;;14.93;77.0
67430;BME280;54298;52.076;5.264;2022-07-03T03:07:17;101708.0;;;15.07;76.27
67430;BME280;54298;52.076;5.264;2022-07-03T03:09:14;101708.0;;;15.03;76.44
67430;BME280;54298;52.076;5.264;2022-07-03T03:11:07;101703.0;;;15.09;76.19
67430;BME280;54298;52.076;5.264;2022-07-03T03:13:02;101706.0;;;15.03;76.36
67430;BME280;54298;52.076;5.264;2022-07-03T03:16:51;101700.0;;;14.93;76.58
67430;BME280;54298;52.076;5.264;2022-07-03T03:18:41;101700.0;;;15.02;76.33
67430;BME280;54298;52.076;5.264;2022-07-03T03:20:30;101696.0;;;14.9;75.94
67430;BME280;54298;52.076;5.264;2022-07-03T03:22:27;101688.0;;;14.76;76.66
67430;BME280;54298;52.076;5.264;2022-07-03T03:24:27;101690.0;;;14.97;75.8
67430;BME280;54298;52.076;5.264;2022-07-03T03:26:17;101693.0;;;15.11;75.06
67430;BME280;54298;52.076;5.264;2022-07-03T03:28:05;101694.0;;;15.17;74.8
67430;BME280;54298;52.076;5.264;2022-07-03T03:29:52;101692.0;;;15.22;74.34
67430;BME280;54298;52.076;5.264;2022-07-03T03:31:39;101696.0;;;15.16;74.58
67430;BME280;54298;52.076;5.264;2022-07-03T03:35:13;101688.0;;;15.16;74.58
67430;BME280;54298;52.076;5.264;2022-07-03T03:37:02;101691.0;;;15.16;74.47
67430;BME280;54298;52.076;5.264;2022-07-03T03:38:49;101701.0;;;15.1;74.95
67430;BME280;54298;52.076;5.264;2022-07-03T03:40:35;101708.0;;;14.97;75.55
67430;BME280;54298;52.076;5.264;2022-07-03T03:42:22;101708.0;;;14.96;75.8
67430;BME280;54298;52.076;5.264;2022-07-03T03:45:57;101705.0;;;15.03;75.8
67430;BME280;54298;52.076;5.264;2022-07-03T03:47:44;101702.0;;;15.04;75.8
67430;BME280;54298;52.076;5.264;2022-07-03T03:49:31;101708.0;;;15.04;75.8
67430;BME280;54298;52.076;5.264;2022-07-03T03:53:06;101705.0;;;15.05;75.8
67430;BME280;54298;52.076;5.264;2022-07-03T03:54:53;101706.0;;;15.1;75.56
67430;BME280;54298;52.076;5.264;2022-07-03T03:58:28;101706.0;;;15.12;75.61
67430;BME280;54298;52.076;5.264;2022-07-03T04:00:16;101708.0;;;15.16;75.45
67430;BME280;54298;52.076;5.264;2022-07-03T04:02:04;101702.0;;;15.2;75.22
67430;BME280;54298;52.076;5.264;2022-07-03T04:03:51;101698.0;;;15.21;75.09
67430;BME280;54298;52.076;5.264;2022-07-03T04:05:37;101698.0;;;15.19;74.8
67430;BME280;54298;52.076;5.264;2022-07-03T04:07:24;101705.0;;;15.32;74.44
67430;BME280;54298;52.076;5.264;2022-07-03T04:10:58;101706.0;;;15.33;74.39
67430;BME280;54298;52.076;5.264;2022-07-03T04:12:47;101705.0;;;15.34;74.31
67430;BME280;54298;52.076;5.264;2022-07-03T04:14:34;101706.0;;;15.31;74.37
67430;BME280;54298;52.076;5.264;2022-07-03T04:16:20;101701.0;;;15.29;74.48
67430;BME280;54298;52.076;5.264;2022-07-03T04:18:07;101696.0;;;15.34;74.36
67430;BME280;54298;52.076;5.264;2022-07-03T04:19:54;101693.0;;;15.32;74.36
67430;BME280;54298;52.076;5.264;2022-07-03T04:23:29;101690.0;;;15.36;74.27
67430;BME280;54298;52.076;5.264;2022-07-03T04:25:16;101695.0;;;15.41;74.05
67430;BME280;54298;52.076;5.264;2022-07-03T04:27:04;101694.0;;;15.33;74.3
67430;BME280;54298;52.076;5.264;2022-07-03T04:28:51;101695.0;;;15.38;74.03
67430;BME280;54298;52.076;5.264;2022-07-03T04:30:38;101706.0;;;15.36;74.08
67430;BME280;54298;52.076;5.264;2022-07-03T04:32:25;101712.0;;;15.22;74.62
67430;BME280;54298;52.076;5.264;2022-07-03T04:35:59;101710.0;;;15.36;74.25
67430;BME280;54298;52.076;5.264;2022-07-03T04:37:47;101715.0;;;15.14;75.53
67430;BME280;54298;52.076;5.264;2022-07-03T04:39:34;101718.0;;;15.09;76.08
67430;BME280;54298;52.076;5.264;2022-07-03T04:41:21;101716.0;;;15.24;75.67
67430;BME280;54298;52.076;5.264;2022-07-03T04:43:07;101715.0;;;15.27;75.94
67430;BME280;54298;52.076;5.264;2022-07-03T04:44:53;101717.0;;;15.36;75.67
67430;BME280;54298;52.076;5.264;2022-07-03T04:48:28;101714.0;;;15.34;75.92
67430;BME280;54298;52.076;5.264;2022-07-03T04:50:15;101711.0;;;15.52;75.44
67430;BME280;54298;52.076;5.264;2022-07-03T04:52:01;101711.0;;;15.56;75.5
67430;BME280;54298;52.076;5.264;2022-07-03T04:53:48;101712.0;;;15.75;75.05
67430;BME280;54298;52.076;5.264;2022-07-03T04:55:34;101717.0;;;15.93;74.47
67430;BME280;54298;52.076;5.264;2022-07-03T04:59:08;101718.0;;;15.79;75.02
67430;BME280;54298;52.076;5.264;2022-07-03T05:00:55;101721.0;;;15.74;75.55
67430;BME280;54298;52.076;5.264;2022-07-03T05:02:42;101720.0;;;15.9;75.28
67430;BME280;54298;52.076;5.264;2022-07-03T05:04:30;101718.0;;;16.11;74.8
67430;BME280;54298;52.076;5.264;2022-07-03T05:06:17;101725.0;;;16.21;74.91
67430;BME280;54298;52.076;5.264;2022-07-03T05:08:04;101728.0;;;16.3;74.84
67430;BME280;54298;52.076;5.264;2022-07-03T05:11:40;101723.0;;;16.4;74.66
67430;BME280;54298;52.076;5.264;2022-07-03T05:13:27;101724.0;;;16.59;74.22
67430;BME280;54298;52.076;5.264;2022-07-03T05:15:14;101717.0;;;16.77;73.83
67430;BME280;54298;52.076;5.264;2022-07-03T05:17:00;101727.0;;;16.9;73.77
67430;BME280;54298;52.076;5.264;2022-07-03T05:18:47;101731.0;;;16.95;73.64
67430;BME280;54298;52.076;5.264;2022-07-03T05:20:34;101725.0;;;17.0;73.52
67430;BME280;54298;52.076;5.264;2022-07-03T05:24:07;101724.0;;;17.09;73.36
67430;BME280;54298;52.076;5.264;2022-07-03T05:25:55;101728.0;;;17.23;72.77
67430;BME280;54298;52.076;5.264;2022-07-03T05:27:43;101726.0;;;17.36;72.47
67430;BME280;54298;52.076;5.264;2022-07-03T05:29:30;101730.0;;;17.47;72.06
67430;BME280;54298;52.076;5.264;2022-07-03T05:31:17;101739.0;;;17.53;72.06
67430;BME280;54298;52.076;5.264;2022-07-03T05:33:03;101740.0;;;17.63;71.69
67430;BME280;54298;52.076;5.264;2022-07-03T05:36:37;101733.0;;;17.66;71.69
67430;BME280;54298;52.076;5.264;2022-07-03T05:41:30;101727.0;;;17.95;70.99
67430;BME280;54298;52.076;5.264;2022-07-03T05:45:05;101732.0;;;18.13;70.58
67430;BME280;54298;52.076;5.264;2022-07-03T05:46:51;101734.0;;;18.2;70.5
67430;BME280;54298;52.076;5.264;2022-07-03T05:48:38;101735.0;;;18.29;70.33
67430;BME280;54298;52.076;5.264;2022-07-03T05:50:25;101738.0;;;18.29;70.44
67430;BME280;54298;52.076;5.264;2022-07-03T05:52:14;101738.0;;;18.39;70.19
67430;BME280;54298;52.076;5.264;2022-07-03T05:54:01;101744.0;;;18.47;69.91
67430;BME280;54298;52.076;5.264;2022-07-03T05:57:35;101743.0;;;18.45;69.73
67430;BME280;54298;52.076;5.264;2022-07-03T05:59:22;101745.0;;;18.48;69.61
67430;BME280;54298;52.076;5.264;2022-07-03T06:01:10;101743.0;;;18.52;69.7
67430;BME280;54298;52.076;5.264;2022-07-03T06:02:57;101739.0;;;18.54;69.67
67430;BME280;54298;52.076;5.264;2022-07-03T06:04:43;101743.0;;;18.68;69.58
67430;BME280;54298;52.076;5.264;2022-07-03T06:06:30;101733.0;;;18.7;69.27
67430;BME280;54298;52.076;5.264;2022-07-03T06:10:05;101733.0;;;18.73;69.14
67430;BME280;54298;52.076;5.264;2022-07-03T06:11:51;101730.0;;;18.82;69.08
67430;BME280;54298;52.076;5.264;2022-07-03T06:13:39;101727.0;;;18.8;68.91
67430;BME280;54298;52.076;5.264;2022-07-03T06:15:26;101734.0;;;18.81;68.59
67430;BME280;54298;52.076;5.264;2022-07-03T06:17:13;101737.0;;;18.93;68.73
67430;BME280;54298;52.076;5.264;2022-07-03T06:19:00;101738.0;;;18.95;68.94
67430;BME280;54298;52.076;5.264;2022-07-03T06:22:35;101737.0;;;19.03;68.19
67430;BME280;54298;52.076;5.264;2022-07-03T06:24:22;101734.0;;;19.12;68.11
67430;BME280;54298;52.076;5.264;2022-07-03T06:26:09;101736.0;;;19.25;67.77
67430;BME280;54298;52.076;5.264;2022-07-03T06:27:55;101740.0;;;19.27;67.58
67430;BME280;54298;52.076;5.264;2022-07-03T06:29:42;101740.0;;;19.27;66.8
67430;BME280;54298;52.076;5.264;2022-07-03T06:33:18;101743.0;;;19.34;66.22
67430;BME280;54298;52.076;5.264;2022-07-03T06:35:06;101747.0;;;19.5;66.56
67430;BME280;54298;52.076;5.264;2022-07-03T06:36:52;101743.0;;;19.57;65.92
67430;BME280;54298;52.076;5.264;2022-07-03T06:38:39;101750.0;;;19.57;65.92
67430;BME280;54298;52.076;5.264;2022-07-03T06:40:26;101750.0;;;19.57;64.88
67430;BME280;54298;52.076;5.264;2022-07-03T06:42:13;101755.0;;;19.52;65.08
67430;BME280;54298;52.076;5.264;2022-07-03T06:45:47;101751.0;;;19.54;64.94
67430;BME280;54298;52.076;5.264;2022-07-03T06:47:37;101748.0;;;19.57;65.41
67430;BME280;54298;52.076;5.264;2022-07-03T06:49:24;101749.0;;;19.64;65.58
67430;BME280;54298;52.076;5.264;2022-07-03T06:51:11;101752.0;;;19.75;65.81
67430;BME280;54298;52.076;5.264;2022-07-03T06:52:57;101752.0;;;19.81;65.33
67430;BME280;54298;52.076;5.264;2022-07-03T06:54:44;101750.0;;;19.89;65.55
67430;BME280;54298;52.076;5.264;2022-07-03T06:58:18;101753.0;;;19.93;64.75
67430;BME280;54298;52.076;5.264;2022-07-03T07:00:06;101756.0;;;19.97;64.28
67430;BME280;54298;52.076;5.264;2022-07-03T07:01:53;101757.0;;;19.93;65.05
67430;BME280;54298;52.076;5.264;2022-07-03T07:03:40;101755.0;;;19.98;64.08
67430;BME280;54298;52.076;5.264;2022-07-03T07:05:27;101751.0;;;19.89;64.13
67430;BME280;54298;52.076;5.264;2022-07-03T07:07:13;101752.0;;;19.86;63.99
67430;BME280;54298;52.076;5.264;2022-07-03T07:10:48;101749.0;;;19.78;64.06
67430;BME280;54298;52.076;5.264;2022-07-03T07:12:35;101747.0;;;19.84;64.69
67430;BME280;54298;52.076;5.264;2022-07-03T07:14:22;101746.0;;;19.8;64.42
67430;BME280;54298;52.076;5.264;2022-07-03T07:16:09;101745.0;;;19.81;64.67
67430;BME280;54298;52.076;5.264;2022-07-03T07:17:56;101742.0;;;19.7;64.5
67430;BME280;54298;52.076;5.264;2022-07-03T07:19:44;101750.0;;;19.77;64.13
67430;BME280;54298;52.076;5.264;2022-07-03T07:23:18;101748.0;;;19.84;64.08
67430;BME280;54298;52.076;5.264;2022-07-03T07:25:06;101745.0;;;19.81;64.52
67430;BME280;54298;52.076;5.264;2022-07-03T07:26:52;101750.0;;;19.86;64.66
67430;BME280;54298;52.076;5.264;2022-07-03T07:28:39;101748.0;;;19.78;64.48
67430;BME280;54298;52.076;5.264;2022-07-03T07:30:26;101749.0;;;20.04;63.91
67430;BME280;54298;52.076;5.264;2022-07-03T07:32:14;101752.0;;;19.93;63.95
67430;BME280;54298;52.076;5.264;2022-07-03T07:35:51;101757.0;;;19.98;63.39
67430;BME280;54298;52.076;5.264;2022-07-03T07:37:38;101762.0;;;20.13;63.49
67430;BME280;54298;52.076;5.264;2022-07-03T07:39:26;101770.0;;;20.07;63.09
67430;BME280;54298;52.076;5.264;2022-07-03T07:41:14;101770.0;;;20.09;63.01
67430;BME280;54298;52.076;5.264;2022-07-03T07:43:01;101771.0;;;20.16;62.68
67430;BME280;54298;52.076;5.264;2022-07-03T07:44:48;101777.0;;;20.14;61.09
67430;BME280;54298;52.076;5.264;2022-07-03T07:48:21;101769.0;;;20.25;61.23
67430;BME280;54298;52.076;5.264;2022-07-03T07:50:09;101771.0;;;20.27;61.9
67430;BME280;54298;52.076;5.264;2022-07-03T07:51:56;101771.0;;;20.36;62.37
67430;BME280;54298;52.076;5.264;2022-07-03T07:53:43;101772.0;;;20.41;62.45
67430;BME280;54298;52.076;5.264;2022-07-03T07:55:31;101778.0;;;20.46;62.36
67430;BME280;54298;52.076;5.264;2022-07-03T07:57:19;101777.0;;;20.54;62.24
67430;BME280;54298;52.076;5.264;2022-07-03T08:06:59;101780.0;;;20.71;61.95
67430;BME280;54298;52.076;5.264;2022-07-03T08:08:46;101785.0;;;20.8;61.67
67430;BME280;54298;52.076;5.264;2022-07-03T08:10:36;101786.0;;;20.64;61.78
67430;BME280;54298;52.076;5.264;2022-07-03T08:12:23;101790.0;;;20.74;61.63
67430;BME280;54298;52.076;5.264;2022-07-03T08:14:11;101786.0;;;20.78;60.88
67430;BME280;54298;52.076;5.264;2022-07-03T08:17:46;101792.0;;;20.91;61.34
67430;BME280;54298;52.076;5.264;2022-07-03T08:19:33;101790.0;;;20.87;60.67
67430;BME280;54298;52.076;5.264;2022-07-03T08:21:20;101788.0;;;20.93;59.96
67430;BME280;54298;52.076;5.264;2022-07-03T08:23:07;101790.0;;;21.01;59.87
67430;BME280;54298;52.076;5.264;2022-07-03T08:24:53;101792.0;;;21.09;59.72
67430;BME280;54298;52.076;5.264;2022-07-03T08:26:41;101793.0;;;21.04;59.89
67430;BME280;54298;52.076;5.264;2022-07-03T08:30:18;101793.0;;;21.06;58.73
67430;BME280;54298;52.076;5.264;2022-07-03T08:32:07;101795.0;;;21.18;58.62
67430;BME280;54298;52.076;5.264;2022-07-03T08:33:54;101791.0;;;21.24;58.61
67430;BME280;54298;52.076;5.264;2022-07-03T08:35:42;101789.0;;;21.36;57.92
67430;BME280;54298;52.076;5.264;2022-07-03T08:37:31;101793.0;;;21.47;57.58
67430;BME280;54298;52.076;5.264;2022-07-03T08:39:18;101791.0;;;21.27;57.81
67430;BME280;54298;52.076;5.264;2022-07-03T08:42:55;101790.0;;;21.37;58.44
67430;BME280;54298;52.076;5.264;2022-07-03T08:44:43;101786.0;;;21.3;57.55
67430;BME280;54298;52.076;5.264;2022-07-03T08:46:32;101795.0;;;21.22;57.73
67430;BME280;54298;52.076;5.264;2022-07-03T08:48:21;101790.0;;;21.25;58.26
67430;BME280;54298;52.076;5.264;2022-07-03T08:50:10;101788.0;;;21.32;58.56
67430;BME280;54298;52.076;5.264;2022-07-03T08:52:00;101788.0;;;21.17;58.67
67430;BME280;54298;52.076;5.264;2022-07-03T08:53:48;101773.0;;;21.3;58.12
67430;BME280;54298;52.076;5.264;2022-07-03T08:57:23;101782.0;;;21.27;58.31
67430;BME280;54298;52.076;5.264;2022-07-03T08:59:12;101786.0;;;21.1;58.19
67430;BME280;54298;52.076;5.264;2022-07-03T09:00:59;101782.0;;;21.11;58.26
67430;BME280;54298;52.076;5.264;2022-07-03T09:02:47;101780.0;;;21.17;58.14
67430;BME280;54298;52.076;5.264;2022-07-03T09:04:35;101780.0;;;21.17;58.29
67430;BME280;54298;52.076;5.264;2022-07-03T09:06:23;101778.0;;;21.23;57.54
67430;BME280;54298;52.076;5.264;2022-07-03T09:09:58;101784.0;;;21.11;57.07
67430;BME280;54298;52.076;5.264;2022-07-03T09:11:47;101776.0;;;21.16;56.97
67430;BME280;54298;52.076;5.264;2022-07-03T09:13:34;101778.0;;;21.19;57.84
67430;BME280;54298;52.076;5.264;2022-07-03T09:15:22;101775.0;;;21.33;57.89
67430;BME280;54298;52.076;5.264;2022-07-03T09:17:10;101780.0;;;21.5;57.9
67430;BME280;54298;52.076;5.264;2022-07-03T09:18:57;101774.0;;;21.55;57.79
67430;BME280;54298;52.076;5.264;2022-07-03T09:22:33;101770.0;;;21.7;57.51
67430;BME280;54298;52.076;5.264;2022-07-03T09:24:21;101766.0;;;21.72;57.08
67430;BME280;54298;52.076;5.264;2022-07-03T09:26:13;101765.0;;;21.91;56.88
67430;BME280;54298;52.076;5.264;2022-07-03T09:28:00;101770.0;;;22.05;56.57
67430;BME280;54298;52.076;5.264;2022-07-03T09:29:56;101774.0;;;22.08;55.36
67430;BME280;54298;52.076;5.264;2022-07-03T09:31:53;101771.0;;;22.16;53.74
67430;BME280;54298;52.076;5.264;2022-07-03T09:33:53;101766.0;;;22.34;53.84
67430;BME280;54298;52.076;5.264;2022-07-03T09:35:41;101758.0;;;22.53;54.15
67430;BME280;54298;52.076;5.264;2022-07-03T09:39:21;101767.0;;;22.48;54.0
67430;BME280;54298;52.076;5.264;2022-07-03T09:41:09;101766.0;;;22.51;53.75
67430;BME280;54298;52.076;5.264;2022-07-03T09:42:59;101763.0;;;22.57;54.11
67430;BME280;54298;52.076;5.264;2022-07-03T09:44:46;101770.0;;;22.55;53.94
67430;BME280;54298;52.076;5.264;2022-07-03T09:46:33;101772.0;;;22.49;54.75
67430;BME280;54298;52.076;5.264;2022-07-03T09:48:24;101768.0;;;22.5;54.6
67430;BME280;54298;52.076;5.264;2022-07-03T09:52:01;101766.0;;;22.36;54.16
67430;BME280;54298;52.076;5.264;2022-07-03T09:53:51;101768.0;;;22.5;54.07
67430;BME280;54298;52.076;5.264;2022-07-03T09:55:39;101770.0;;;22.55;54.2
67430;BME280;54298;52.076;5.264;2022-07-03T09:57:27;101769.0;;;22.62;54.0
67430;BME280;54298;52.076;5.264;2022-07-03T09:59:15;101767.0;;;22.63;53.37
67430;BME280;54298;52.076;5.264;2022-07-03T10:01:15;101768.0;;;22.7;53.23
67430;BME280;54298;52.076;5.264;2022-07-03T10:03:05;101762.0;;;22.58;53.09
67430;BME280;54298;52.076;5.264;2022-07-03T10:05:10;101768.0;;;22.5;52.51
67430;BME280;54298;52.076;5.264;2022-07-03T10:08:47;101761.0;;;22.58;52.09
67430;BME280;54298;52.076;5.264;2022-07-03T10:10:36;101765.0;;;22.69;52.55
67430;BME280;54298;52.076;5.264;2022-07-03T10:12:24;101764.0;;;22.62;51.02
67430;BME280;54298;52.076;5.264;2022-07-03T10:14:13;101757.0;;;22.75;51.8
67430;BME280;54298;52.076;5.264;2022-07-03T10:16:01;101767.0;;;22.85;51.42
67430;BME280;54298;52.076;5.264;2022-07-03T10:17:51;101767.0;;;23.01;51.33
67430;BME280;54298;52.076;5.264;2022-07-03T10:19:39;101772.0;;;23.1;52.1
67430;BME280;54298;52.076;5.264;2022-07-03T10:23:15;101772.0;;;23.06;51.47
67430;BME280;54298;52.076;5.264;2022-07-03T10:25:03;101772.0;;;23.05;49.77
67430;BME280;54298;52.076;5.264;2022-07-03T10:26:51;101770.0;;;23.13;50.41
67430;BME280;54298;52.076;5.264;2022-07-03T10:28:38;101771.0;;;23.25;50.38
67430;BME280;54298;52.076;5.264;2022-07-03T10:30:27;101776.0;;;23.12;50.78
67430;BME280;54298;52.076;5.264;2022-07-03T10:32:15;101777.0;;;23.14;51.68
67430;BME280;54298;52.076;5.264;2022-07-03T10:35:52;101778.0;;;23.05;51.51
67430;BME280;54298;52.076;5.264;2022-07-03T10:37:50;101771.0;;;23.15;52.02
67430;BME280;54298;52.076;5.264;2022-07-03T10:40:04;101778.0;;;23.08;51.81
67430;BME280;54298;52.076;5.264;2022-07-03T10:45:06;101777.0;;;22.88;50.91
67430;BME280;54298;52.076;5.264;2022-07-03T10:46:58;101785.0;;;23.06;50.98
67430;BME280;54298;52.076;5.264;2022-07-03T10:51:11;101795.0;;;22.96;51.12
67430;BME280;54298;52.076;5.264;2022-07-03T10:53:22;101798.0;;;22.8;50.74
67430;BME280;54298;52.076;5.264;2022-07-03T10:55:11;101795.0;;;22.78;51.54
67430;BME280;54298;52.076;5.264;2022-07-03T10:59:16;101800.0;;;22.59;52.1
67430;BME280;54298;52.076;5.264;2022-07-03T11:01:03;101809.0;;;22.71;51.81
67430;BME280;54298;52.076;5.264;2022-07-03T11:02:51;101825.0;;;22.53;52.5
67430;BME280;54298;52.076;5.264;2022-07-03T11:05:06;101814.0;;;22.3;55.03
67430;BME280;54298;52.076;5.264;2022-07-03T11:07:10;101820.0;;;22.07;56.04
67430;BME280;54298;52.076;5.264;2022-07-03T11:09:01;101816.0;;;22.04;56.09
67430;BME280;54298;52.076;5.264;2022-07-03T11:11:54;101822.0;;;21.84;57.1
67430;BME280;54298;52.076;5.264;2022-07-03T11:14:17;101826.0;;;21.8;57.32
67430;BME280;54298;52.076;5.264;2022-07-03T11:16:22;101831.0;;;21.59;58.15
67430;BME280;54298;52.076;5.264;2022-07-03T11:18:19;101831.0;;;21.44;58.91
67430;BME280;54298;52.076;5.264;2022-07-03T11:23:28;101827.0;;;21.43;60.2
67430;BME280;54298;52.076;5.264;2022-07-03T11:25:38;101822.0;;;21.56;59.79
67430;BME280;54298;52.076;5.264;2022-07-03T11:27:27;101819.0;;;21.55;60.62
67430;BME280;54298;52.076;5.264;2022-07-03T11:29:25;101814.0;;;21.6;59.78